createdAt,value
2018-12-12T00:01:33.616Z,2.30
2018-12-12T00:04:02.336Z,2.30
2018-12-12T00:06:31.060Z,2.30
2018-12-12T00:08:59.739Z,2.30
2018-12-12T00:11:28.532Z,2.30
2018-12-12T00:13:57.224Z,2.30
2018-12-12T00:18:54.428Z,2.30
2018-12-12T00:21:23.199Z,2.40
2018-12-12T00:23:51.888Z,2.40
2018-12-12T00:26:20.681Z,2.40
2018-12-12T00:28:49.378Z,2.40
2018-12-12T00:31:18.896Z,2.40
2018-12-12T00:36:15.981Z,2.50
2018-12-12T00:38:44.664Z,2.50
2018-12-12T00:46:10.132Z,2.60
2018-12-12T00:48:39.674Z,2.60
2018-12-12T00:53:36.888Z,2.60
2018-12-12T00:56:11.823Z,2.60
2018-12-12T00:58:40.599Z,2.70
2018-12-12T01:01:09.495Z,2.60
2018-12-12T01:03:38.317Z,2.60
2018-12-12T01:06:07.172Z,2.70
2018-12-12T01:08:35.864Z,2.70
2018-12-12T01:12:17.644Z,2.70
2018-12-12T01:14:46.336Z,2.70
2018-12-12T01:17:15.031Z,2.70
2018-12-12T01:19:43.731Z,2.70
2018-12-12T01:22:13.283Z,2.70
2018-12-12T01:24:41.958Z,2.70
2018-12-12T01:27:10.670Z,2.70
2018-12-12T01:29:45.695Z,2.80
2018-12-12T01:32:14.375Z,2.80
2018-12-12T01:37:11.716Z,2.80
2018-12-12T01:39:40.396Z,2.80
2018-12-12T01:42:09.185Z,2.80
2018-12-12T01:44:37.977Z,2.80
2018-12-12T01:47:06.765Z,2.90
2018-12-12T01:49:36.264Z,2.80
2018-12-12T01:52:05.763Z,2.80
2018-12-12T01:54:34.623Z,2.80
2018-12-12T01:57:03.428Z,2.80
2018-12-12T01:59:32.120Z,2.90
2018-12-12T02:02:00.820Z,2.90
2018-12-12T02:04:29.503Z,2.90
2018-12-12T02:06:58.204Z,2.90
2018-12-12T02:09:26.888Z,2.90
2018-12-12T02:11:55.605Z,2.90
2018-12-12T02:14:24.325Z,2.90
2018-12-12T02:16:53.819Z,3.00
2018-12-12T02:19:22.607Z,3.00
2018-12-12T02:21:51.310Z,3.00
2018-12-12T02:24:26.181Z,3.00
2018-12-12T02:26:54.863Z,3.10
2018-12-12T02:29:23.570Z,3.10
2018-12-12T02:31:52.328Z,3.10
2018-12-12T02:34:21.106Z,3.10
2018-12-12T02:36:50.615Z,3.20
2018-12-12T02:39:19.326Z,3.20
2018-12-12T02:41:48.033Z,3.20
2018-12-12T02:44:16.720Z,3.20
2018-12-12T02:46:45.444Z,3.20
2018-12-12T02:49:14.277Z,3.10
2018-12-12T02:51:42.984Z,3.20
2018-12-12T02:54:11.676Z,3.20
2018-12-12T02:56:40.406Z,3.20
2018-12-12T02:59:15.227Z,3.10
2018-12-12T03:01:43.996Z,3.10
2018-12-12T03:04:12.717Z,3.20
2018-12-12T03:06:41.427Z,3.10
2018-12-12T03:09:16.413Z,3.10
2018-12-12T03:11:45.177Z,3.20
2018-12-12T03:14:19.993Z,3.20
2018-12-12T03:16:48.681Z,3.20
2018-12-12T03:19:19.325Z,3.20
2018-12-12T03:21:48.062Z,3.20
2018-12-12T03:24:17.600Z,3.20
2018-12-12T03:26:52.537Z,3.30
2018-12-12T03:29:21.276Z,3.30
2018-12-12T03:31:49.956Z,3.30
2018-12-12T03:34:18.696Z,3.30
2018-12-12T03:36:47.419Z,3.30
2018-12-12T03:39:16.167Z,3.30
2018-12-12T03:41:44.965Z,3.30
2018-12-12T03:44:14.461Z,3.30
2018-12-12T03:46:43.212Z,3.30
2018-12-12T03:51:46.601Z,3.30
2018-12-12T03:54:15.281Z,3.30
2018-12-12T03:56:44.103Z,3.30
2018-12-12T03:59:12.755Z,3.30
2018-12-12T04:01:41.635Z,3.30
2018-12-12T04:04:10.324Z,3.30
2018-12-12T04:06:45.184Z,3.30
2018-12-12T04:09:13.922Z,3.30
2018-12-12T04:11:43.507Z,3.30
2018-12-12T04:14:12.247Z,3.40
2018-12-12T04:16:40.960Z,3.30
2018-12-12T04:19:13.676Z,3.40
2018-12-12T04:21:42.467Z,3.40
2018-12-12T04:24:12.059Z,3.40
2018-12-12T04:26:40.764Z,3.40
2018-12-12T04:29:09.460Z,3.40
2018-12-12T04:31:38.171Z,3.50
2018-12-12T04:34:06.948Z,3.10
2018-12-12T04:36:35.732Z,3.40
2018-12-12T04:39:07.012Z,3.40
2018-12-12T04:41:35.686Z,3.40
2018-12-12T04:44:04.456Z,3.40
2018-12-12T04:46:33.143Z,3.40
2018-12-12T04:49:02.663Z,3.40
2018-12-12T04:51:31.367Z,3.40
2018-12-12T04:54:05.360Z,3.40
2018-12-12T04:56:34.066Z,3.40
2018-12-12T04:59:03.127Z,3.40
2018-12-12T05:01:32.632Z,3.40
2018-12-12T05:04:07.536Z,3.50
2018-12-12T05:06:36.339Z,3.50
2018-12-12T05:09:07.136Z,3.40
2018-12-12T05:11:42.120Z,3.40
2018-12-12T05:14:10.808Z,3.50
2018-12-12T05:16:42.463Z,3.50
2018-12-12T05:19:11.236Z,3.40
2018-12-12T05:21:39.931Z,3.40
2018-12-12T05:24:08.632Z,3.40
2018-12-12T05:26:37.343Z,3.40
2018-12-12T05:29:06.047Z,3.40
2018-12-12T05:31:34.863Z,3.40
2018-12-12T05:34:09.731Z,3.50
2018-12-12T05:36:38.481Z,3.50
2018-12-12T05:39:07.564Z,3.50
2018-12-12T05:41:36.339Z,3.50
2018-12-12T05:44:05.163Z,3.60
2018-12-12T05:46:34.679Z,3.60
2018-12-12T05:49:03.372Z,3.60
2018-12-12T05:51:38.179Z,3.60
2018-12-12T05:54:06.864Z,3.60
2018-12-12T05:56:35.619Z,3.60
2018-12-12T05:59:10.456Z,5.50
2018-12-12T06:01:39.148Z,3.60
2018-12-12T06:04:07.834Z,3.60
2018-12-12T06:06:36.611Z,3.60
2018-12-12T06:14:09.971Z,3.60
2018-12-12T06:21:40.188Z,3.60
2018-12-12T06:24:08.959Z,3.60
2018-12-12T06:26:37.821Z,3.60
2018-12-12T06:29:07.453Z,3.60
2018-12-12T06:31:37.112Z,3.70
2018-12-12T06:34:05.804Z,3.70
2018-12-12T06:36:34.488Z,3.70
2018-12-12T06:39:06.487Z,3.70
2018-12-12T06:44:05.516Z,3.70
2018-12-12T06:46:40.393Z,3.70
2018-12-12T06:49:09.147Z,3.80
2018-12-12T06:51:37.833Z,3.80
2018-12-12T06:54:12.782Z,3.80
2018-12-12T06:56:41.467Z,3.80
2018-12-12T06:59:16.396Z,3.90
2018-12-12T07:01:51.283Z,3.80
2018-12-12T07:04:26.376Z,3.80
2018-12-12T07:06:55.534Z,3.80
2018-12-12T07:09:25.214Z,3.70
2018-12-12T07:11:53.906Z,3.70
2018-12-12T07:14:22.599Z,3.80
2018-12-12T07:16:51.482Z,3.70
2018-12-12T07:19:26.384Z,3.70
2018-12-12T07:21:55.138Z,3.80
2018-12-12T07:24:30.039Z,3.80
2018-12-12T07:26:58.799Z,3.80
2018-12-12T07:29:33.722Z,3.80
2018-12-12T07:32:02.741Z,3.80
2018-12-12T07:34:37.803Z,3.80
2018-12-12T07:37:06.480Z,3.80
2018-12-12T07:39:35.992Z,3.80
2018-12-12T07:42:10.981Z,3.80
2018-12-12T07:47:14.505Z,3.80
2018-12-12T07:52:24.171Z,3.70
2018-12-12T07:59:56.766Z,3.70
2018-12-12T08:02:31.720Z,3.80
2018-12-12T08:05:00.573Z,3.80
2018-12-12T08:15:00.455Z,3.90
2018-12-12T08:17:29.143Z,3.90
2018-12-12T08:19:57.849Z,3.90
2018-12-12T08:22:26.545Z,3.80
2018-12-12T08:25:01.567Z,3.90
2018-12-12T08:27:30.324Z,3.90
2018-12-12T08:29:59.017Z,3.90
2018-12-12T08:32:27.711Z,3.90
2018-12-12T08:34:56.407Z,3.90
2018-12-12T08:42:28.103Z,4.10
2018-12-12T08:44:56.805Z,4.10
2018-12-12T08:49:53.892Z,4.10
2018-12-12T08:52:22.662Z,4.20
2018-12-12T08:54:51.436Z,4.10
2018-12-12T08:57:26.382Z,4.20
2018-12-12T09:02:29.664Z,4.40
2018-12-12T09:04:58.352Z,4.50
2018-12-12T09:14:52.246Z,4.80
2018-12-12T09:17:20.928Z,4.80
2018-12-12T09:19:49.613Z,4.90
2018-12-12T09:24:53.905Z,4.90
2018-12-12T09:27:28.869Z,5.00
2018-12-12T09:32:25.919Z,5.10
2018-12-12T09:35:00.699Z,5.20
2018-12-12T09:37:30.345Z,5.30
2018-12-12T09:39:59.347Z,5.30
2018-12-12T09:42:28.052Z,5.40
2018-12-12T09:50:06.441Z,5.40
2018-12-12T09:52:35.179Z,5.50
2018-12-12T09:57:32.315Z,5.60
2018-12-12T10:00:07.284Z,5.50
2018-12-12T10:02:35.967Z,5.50
2018-12-12T10:05:05.146Z,5.50
2018-12-12T10:10:08.307Z,5.60
2018-12-12T10:17:40.746Z,5.70
2018-12-12T10:20:15.824Z,5.80
2018-12-12T10:22:44.655Z,5.80
2018-12-12T10:25:13.409Z,5.80
2018-12-12T10:27:42.109Z,5.80
2018-12-12T10:30:16.835Z,5.80
2018-12-12T10:32:45.626Z,5.80
2018-12-12T10:35:14.645Z,5.80
2018-12-12T10:40:17.913Z,5.70
2018-12-12T10:42:50.487Z,5.70
2018-12-12T10:45:25.251Z,5.70
2018-12-12T10:47:53.988Z,5.70
2018-12-12T10:50:22.741Z,5.60
2018-12-12T10:52:57.693Z,5.60
2018-12-12T10:55:26.405Z,5.50
2018-12-12T10:58:01.410Z,5.50
2018-12-12T11:00:40.038Z,5.30
2018-12-12T11:03:20.180Z,5.20
2018-12-12T11:10:58.077Z,4.70
2018-12-12T11:16:01.339Z,4.50
2018-12-12T11:18:30.073Z,4.50
2018-12-12T11:21:05.063Z,4.50
2018-12-12T11:26:02.131Z,4.60
2018-12-12T11:28:30.827Z,4.50
2018-12-12T11:31:05.952Z,4.50
2018-12-12T11:36:03.179Z,4.40
2018-12-12T11:38:31.921Z,4.50
2018-12-12T11:43:40.319Z,4.60
2018-12-12T11:46:08.987Z,4.60
2018-12-12T11:51:06.175Z,4.90
2018-12-12T11:53:34.853Z,5.00
2018-12-12T11:58:32.059Z,5.20
2018-12-12T12:01:00.819Z,5.30
2018-12-12T12:03:29.500Z,5.50
2018-12-12T12:05:58.173Z,5.70
2018-12-12T12:15:59.867Z,5.80
2018-12-12T12:21:03.244Z,5.70
2018-12-12T12:23:31.943Z,5.60
2018-12-12T12:26:06.816Z,5.50
2018-12-12T12:36:08.463Z,5.40
2018-12-12T12:38:38.003Z,5.40
2018-12-12T12:41:12.875Z,5.40
2018-12-12T12:46:16.156Z,5.60
2018-12-12T12:51:13.339Z,5.90
2018-12-12T12:53:43.875Z,6.00
2018-12-12T12:56:12.580Z,6.10
2018-12-12T12:58:41.271Z,6.20
2018-12-12T13:01:16.148Z,6.20
2018-12-12T13:06:13.228Z,6.20
2018-12-12T13:11:14.789Z,6.10
2018-12-12T13:13:41.077Z,6.00
2018-12-12T13:18:44.378Z,5.80
2018-12-12T13:21:13.131Z,5.90
2018-12-12T13:23:47.980Z,6.00
2018-12-12T13:26:22.805Z,6.00
2018-12-12T13:28:57.675Z,6.10
2018-12-12T13:33:54.732Z,6.10
2018-12-12T13:36:29.704Z,6.20
2018-12-12T13:39:07.642Z,6.30
2018-12-12T13:41:37.149Z,6.30
2018-12-12T13:46:34.222Z,6.20
2018-12-12T13:49:03.026Z,6.30
2018-12-12T13:51:37.941Z,6.30
2018-12-12T13:54:06.645Z,6.20
2018-12-12T13:56:41.503Z,6.20
2018-12-12T13:59:10.259Z,6.00
2018-12-12T14:01:45.120Z,6.00
2018-12-12T14:04:13.808Z,6.00
2018-12-12T14:14:13.920Z,5.70
2018-12-12T14:19:13.948Z,5.60
2018-12-12T14:21:48.844Z,5.50
2018-12-12T14:24:23.756Z,5.50
2018-12-12T14:26:58.640Z,5.40
2018-12-12T14:29:33.568Z,5.40
2018-12-12T14:32:02.700Z,5.40
2018-12-12T14:36:59.829Z,5.20
2018-12-12T14:39:34.667Z,5.20
2018-12-12T14:44:44.191Z,5.00
2018-12-12T14:47:13.684Z,4.90
2018-12-12T14:49:42.361Z,4.80
2018-12-12T14:52:17.174Z,4.80
2018-12-12T14:54:51.972Z,4.70
2018-12-12T14:57:21.917Z,4.70
2018-12-12T14:59:50.820Z,4.60
2018-12-12T15:04:54.239Z,4.30
2018-12-12T15:07:29.205Z,4.20
2018-12-12T15:10:05.042Z,4.10
2018-12-12T15:12:33.749Z,3.90
2018-12-12T15:15:08.740Z,3.80
2018-12-12T15:17:37.460Z,3.70
2018-12-12T15:20:06.312Z,3.60
2018-12-12T15:22:35.005Z,3.60
2018-12-12T15:25:04.141Z,3.50
2018-12-12T15:27:39.056Z,3.30
2018-12-12T15:30:07.925Z,3.10
2018-12-12T15:32:36.752Z,3.00
2018-12-12T15:35:05.721Z,2.80
2018-12-12T15:37:34.508Z,2.70
2018-12-12T15:42:37.956Z,2.50
2018-12-12T15:45:13.017Z,2.40
2018-12-12T15:50:10.163Z,2.30
2018-12-12T15:52:38.911Z,2.10
2018-12-12T15:55:07.691Z,2.10
2018-12-12T15:57:36.389Z,2.00
2018-12-12T16:00:06.416Z,2.00
2018-12-12T16:02:35.171Z,1.90
2018-12-12T16:10:07.468Z,1.70
2018-12-12T16:12:42.312Z,1.70
2018-12-12T16:15:18.043Z,1.60
2018-12-12T16:17:46.919Z,1.60
2018-12-12T16:20:15.691Z,1.50
2018-12-12T16:22:44.367Z,1.50
2018-12-12T16:25:13.057Z,1.30
2018-12-12T16:27:41.745Z,1.30
2018-12-12T16:32:45.025Z,1.30
2018-12-12T16:35:14.709Z,1.30
2018-12-12T16:37:49.791Z,1.30
2018-12-12T16:40:19.491Z,1.40
2018-12-12T16:42:48.254Z,1.30
2018-12-12T16:45:16.960Z,1.30
2018-12-12T16:50:14.068Z,1.40
2018-12-12T16:52:42.756Z,1.40
2018-12-12T16:55:11.459Z,1.50
2018-12-12T16:57:46.324Z,1.60
2018-12-12T17:02:49.719Z,1.70
2018-12-12T17:05:18.525Z,1.70
2018-12-12T17:10:22.084Z,1.80
2018-12-12T17:12:50.806Z,1.80
2018-12-12T17:15:25.672Z,1.90
2018-12-12T17:17:54.435Z,1.90
2018-12-12T17:20:28.131Z,2.00
2018-12-12T17:22:56.831Z,2.00
2018-12-12T17:25:25.532Z,2.00
2018-12-12T17:27:54.220Z,2.00
2018-12-12T17:30:26.006Z,2.10
2018-12-12T17:33:00.817Z,2.10
2018-12-12T17:35:29.520Z,2.10
2018-12-12T17:40:27.416Z,2.20
2018-12-12T17:42:56.111Z,2.30
2018-12-12T17:45:31.008Z,2.30
2018-12-12T17:50:34.236Z,2.30
2018-12-12T17:53:02.938Z,2.40
2018-12-12T17:55:38.273Z,2.40
2018-12-12T17:58:07.196Z,2.40
2018-12-12T18:00:36.007Z,2.40
2018-12-12T18:03:04.705Z,2.30
2018-12-12T18:05:39.614Z,2.40
2018-12-12T18:08:14.352Z,2.30
2018-12-12T18:10:43.039Z,2.30
2018-12-12T18:13:17.861Z,2.20
2018-12-12T18:15:52.796Z,2.10
2018-12-12T18:18:21.521Z,2.10
2018-12-12T18:23:26.379Z,2.00
2018-12-12T18:25:55.142Z,1.90
2018-12-12T18:30:53.293Z,1.90
2018-12-12T18:33:22.064Z,1.90
2018-12-12T18:35:57.016Z,1.80
2018-12-12T18:38:25.793Z,1.80
2018-12-12T18:40:55.447Z,1.80
2018-12-12T18:48:27.087Z,1.80
2018-12-12T18:50:55.874Z,1.90
2018-12-12T18:53:24.592Z,1.90
2018-12-12T18:55:54.083Z,1.90
2018-12-12T18:58:28.947Z,2.00
2018-12-12T19:00:58.427Z,2.00
2018-12-12T19:03:27.185Z,2.10
2018-12-12T19:05:55.856Z,2.20
2018-12-12T19:08:24.541Z,2.20
2018-12-12T19:10:53.276Z,2.30
2018-12-12T19:13:21.952Z,2.30
2018-12-12T19:15:50.650Z,2.30
2018-12-12T19:20:47.917Z,2.40
2018-12-12T19:23:23.331Z,2.40
2018-12-12T19:25:52.137Z,2.40
2018-12-12T19:28:21.759Z,2.50
2018-12-12T19:30:56.693Z,2.50
2018-12-12T19:33:25.400Z,2.50
2018-12-12T19:35:54.285Z,2.50
2018-12-12T19:40:57.719Z,2.50
2018-12-12T19:43:26.531Z,2.60
2018-12-12T19:48:29.919Z,2.60
2018-12-12T19:50:58.732Z,2.60
2018-12-12T19:53:33.527Z,2.60
2018-12-12T19:56:02.321Z,2.60
2018-12-12T19:58:31.029Z,2.60
2018-12-12T20:00:59.717Z,2.60
2018-12-12T20:03:28.491Z,2.60
2018-12-12T20:05:58.149Z,2.50
2018-12-12T20:08:26.915Z,2.50
2018-12-12T20:11:01.859Z,2.50
2018-12-12T20:13:36.915Z,2.50
2018-12-12T20:16:10.649Z,2.60
2018-12-12T20:18:39.355Z,2.60
2018-12-12T20:21:08.047Z,2.60
2018-12-12T20:23:36.936Z,2.70
2018-12-12T20:26:05.765Z,2.70
2018-12-12T20:28:34.640Z,2.70
2018-12-12T20:31:04.233Z,2.70
2018-12-12T20:33:39.147Z,2.70
2018-12-12T20:36:07.874Z,2.70
2018-12-12T20:38:42.729Z,2.80
2018-12-12T20:43:53.844Z,2.80
2018-12-12T20:46:28.826Z,2.70
2018-12-12T20:48:57.573Z,2.70
2018-12-12T20:51:26.394Z,2.70
2018-12-12T20:53:55.252Z,2.80
2018-12-12T20:56:23.964Z,2.80
2018-12-12T20:58:52.752Z,2.80
2018-12-12T21:01:27.577Z,2.80
2018-12-12T21:03:56.267Z,2.80
2018-12-12T21:06:31.187Z,2.80
2018-12-12T21:09:06.695Z,2.90
2018-12-12T21:11:41.654Z,2.90
2018-12-12T21:14:11.183Z,2.80
2018-12-12T21:16:40.747Z,2.80
2018-12-12T21:19:17.573Z,2.90
2018-12-12T21:24:18.365Z,2.90
2018-12-12T21:26:47.072Z,2.90
2018-12-12T21:29:22.090Z,3.00
2018-12-12T21:31:56.952Z,3.00
2018-12-12T21:34:25.674Z,3.10
2018-12-12T21:37:00.760Z,3.00
2018-12-12T21:39:32.289Z,3.00
2018-12-12T21:42:07.081Z,3.00
2018-12-12T21:44:35.772Z,3.00
2018-12-12T21:47:04.581Z,3.00
2018-12-12T21:52:01.743Z,3.00
2018-12-12T21:54:36.652Z,3.00
2018-12-12T21:57:05.447Z,3.00
2018-12-12T21:59:40.240Z,3.00
2018-12-12T22:02:08.960Z,3.00
2018-12-12T22:04:37.667Z,3.00
2018-12-12T22:07:12.476Z,3.10
2018-12-12T22:09:47.458Z,3.00
2018-12-12T22:12:22.315Z,2.90
2018-12-12T22:14:51.027Z,2.90
2018-12-12T22:17:19.777Z,2.90
2018-12-12T22:19:54.956Z,2.90
2018-12-12T22:22:29.977Z,3.00
2018-12-12T22:24:59.284Z,2.90
2018-12-12T22:27:27.984Z,2.90
2018-12-12T22:29:56.819Z,2.90
2018-12-12T22:32:25.527Z,2.90
2018-12-12T22:34:55.118Z,2.90
2018-12-12T22:37:29.996Z,2.90
2018-12-12T22:39:58.787Z,2.90
2018-12-12T22:42:27.531Z,2.90
2018-12-12T22:44:56.259Z,2.90
2018-12-12T22:47:24.999Z,2.90
2018-12-12T22:49:59.825Z,2.90
2018-12-12T22:52:34.678Z,2.90
2018-12-12T22:57:38.080Z,2.70
2018-12-12T23:00:10.059Z,2.70
2018-12-12T23:02:39.299Z,2.60
2018-12-12T23:05:08.169Z,2.60
2018-12-12T23:07:43.111Z,2.50
2018-12-12T23:10:17.968Z,2.50
2018-12-12T23:12:46.704Z,2.50
2018-12-12T23:15:15.572Z,2.50
2018-12-12T23:17:50.346Z,2.50
2018-12-12T23:20:19.084Z,2.50
2018-12-12T23:22:48.628Z,2.50
2018-12-12T23:25:17.371Z,2.50
2018-12-12T23:27:46.081Z,2.50
2018-12-12T23:30:14.807Z,2.50
2018-12-12T23:32:43.544Z,2.50
2018-12-12T23:37:41.545Z,2.30
2018-12-12T23:40:10.311Z,2.30
2018-12-12T23:42:39.017Z,2.30
2018-12-12T23:47:42.500Z,2.30
2018-12-12T23:50:11.348Z,2.30
2018-12-12T23:52:40.095Z,2.20
2018-12-12T23:55:08.852Z,2.00
2018-12-12T23:57:37.620Z,1.90
